Time;durP1;ratioP1;P1;durP2;ratioP2;P2;SDS_P1;SDS_P2;PMS_P1;PMS_P2;Temp;Humidity;BMP_temperature;BMP_pressure;BME280_temperature;BME280_humidity;BME280_pressure;Samples;Min_cycle;Max_cycle;Signal;HPM_P1;HPM_P2
2022/10/12 00:01:57;;;;;;;23.00;15.40;;;;;;;7.06;98.32;98028.40;107934;1264;70583;-75
2022/10/12 00:04:28;;;;;;;27.90;18.40;;;;;;;7.05;98.07;98031.39;107903;1265;69278;-75
2022/10/12 00:06:57;;;;;;;26.50;17.10;;;;;;;7.04;98.22;98031.96;107874;1261;68451;-76
2022/10/12 00:09:26;;;;;;;22.80;16.20;;;;;;;7.02;96.27;98029.77;107884;1266;59198;-76
2022/10/12 00:11:56;;;;;;;25.00;17.80;;;;;;;7.01;95.03;98033.67;107922;1262;58990;-74
2022/10/12 00:14:25;;;;;;;26.00;16.00;;;;;;;6.99;95.28;98035.69;107758;1266;69668;-74
2022/10/12 00:16:55;;;;;;;27.20;18.90;;;;;;;6.97;96.68;98036.79;107986;1261;69255;-75
2022/10/12 00:19:25;;;;;;;25.80;18.60;;;;;;;6.95;97.81;98039.86;108039;1262;69320;-74
2022/10/12 00:21:54;;;;;;;23.40;16.10;;;;;;;6.93;98.14;98037.67;107949;1262;58982;-75
2022/10/12 00:24:25;;;;;;;22.40;16.10;;;;;;;6.93;97.13;98041.15;107984;1262;58843;-74
2022/10/12 00:26:55;;;;;;;26.00;20.00;;;;;;;6.94;98.49;98041.11;107858;1266;70600;-76
2022/10/12 00:29:26;;;;;;;26.00;17.60;;;;;;;6.94;99.26;98041.83;107971;1266;68294;-75
2022/10/12 00:31:58;;;;;;;27.40;18.40;;;;;;;6.94;99.78;98043.73;108093;1264;69193;-75
2022/10/12 00:34:30;;;;;;;25.80;16.80;;;;;;;6.94;99.98;98042.52;108017;1262;58868;-75
2022/10/12 00:37:01;;;;;;;26.80;19.70;;;;;;;6.95;100.00;98044.04;108025;1266;58941;-75
2022/10/12 00:39:32;;;;;;;27.80;20.00;;;;;;;6.94;100.00;98043.36;108122;1261;70475;-75
2022/10/12 00:42:04;;;;;;;30.20;21.10;;;;;;;6.92;100.00;98037.06;108109;1262;68370;-74
2022/10/12 00:44:36;;;;;;;26.10;17.60;;;;;;;6.91;100.00;98033.64;107845;1266;69644;-74
2022/10/12 00:47:16;;;;;;;27.70;19.50;;;;;;;6.91;100.00;98034.16;108125;1264;58895;-75
2022/10/12 00:50:03;;;;;;;24.30;16.80;;;;;;;6.91;100.00;98032.05;107772;1266;58887;-75
2022/10/12 00:52:45;;;;;;;22.80;15.40;;;;;;;6.92;100.00;98032.71;108543;1262;69759;-74
2022/10/12 00:55:20;;;;;;;32.90;20.40;;;;;;;6.93;100.00;98033.00;107973;1266;68371;-75
2022/10/12 00:57:52;;;;;;;28.00;19.50;;;;;;;6.94;100.00;98033.86;108059;1265;68596;-75
2022/10/12 01:00:23;;;;;;;33.10;21.20;;;;;;;6.95;100.00;98033.96;108033;1264;58932;-74
2022/10/12 01:02:54;;;;;;;29.90;19.00;;;;;;;6.97;100.00;98035.07;107997;1266;58926;-76
2022/10/12 01:05:23;;;;;;;22.70;16.10;;;;;;;6.99;100.00;98033.95;108049;1261;70546;-76
2022/10/12 01:07:58;;;;;;;21.60;15.70;;;;;;;7.00;100.00;98032.69;107964;1266;69047;-76
2022/10/12 01:10:28;;;;;;;19.90;13.40;;;;;;;7.01;98.66;98034.19;107981;1261;69370;-75
2022/10/12 01:13:00;;;;;;;24.60;17.80;;;;;;;7.01;99.34;98034.33;108103;1260;58847;-76
2022/10/12 01:15:36;;;;;;;29.50;19.30;;;;;;;7.01;99.77;98033.16;108185;1262;58900;-76
2022/10/12 01:18:08;;;;;;;20.70;13.20;;;;;;;6.99;99.77;98032.04;107898;1262;70600;-76
2022/10/12 01:20:51;;;;;;;15.00;11.30;;;;;;;6.96;99.62;98033.00;107950;1261;69213;-75
2022/10/12 01:23:31;;;;;;;22.90;15.70;;;;;;;6.95;99.38;98033.45;108010;1260;68489;-76
2022/10/12 01:26:14;;;;;;;27.00;17.70;;;;;;;6.94;99.80;98032.48;108137;1266;58943;-77
2022/10/12 01:29:13;;;;;;;31.30;21.40;;;;;;;6.93;100.00;98031.29;108409;1263;58843;-76
2022/10/12 01:32:02;;;;;;;28.80;18.70;;;;;;;6.93;100.00;98035.09;108201;1266;70417;-76
2022/10/12 01:34:45;;;;;;;28.30;18.70;;;;;;;6.95;100.00;98031.18;108133;1264;69182;-77
2022/10/12 01:37:32;;;;;;;24.60;17.20;;;;;;;6.95;100.00;98029.27;108213;1266;67373;-76
2022/10/12 01:40:09;;;;;;;28.20;20.10;;;;;;;6.96;100.00;98031.80;107941;1262;58889;-78
2022/10/12 01:42:42;;;;;;;30.00;21.40;;;;;;;6.98;100.00;98033.13;108104;1262;58910;-77
2022/10/12 01:45:17;;;;;;;33.00;23.10;;;;;;;6.99;100.00;98033.96;108159;1262;70603;-76
2022/10/12 01:47:51;;;;;;;34.70;23.30;;;;;;;6.99;100.00;98035.14;108156;1260;68448;-75
2022/10/12 01:50:31;;;;;;;28.70;20.60;;;;;;;7.01;100.00;98037.30;108038;1260;68494;-76
2022/10/12 01:53:05;;;;;;;;;;;;;;;7.03;100.00;98038.09;108123;1266;59044;-75
2022/10/12 01:55:42;;;;;;;26.30;18.90;;;;;;;7.04;100.00;98040.46;108039;1266;58851;-75
2022/10/12 01:58:43;;;;;;;19.80;14.30;;;;;;;7.06;100.00;98041.89;108084;1266;69449;-75
2022/10/12 02:01:16;;;;;;;21.80;15.40;;;;;;;7.10;99.96;98041.73;107971;1265;69389;-75
2022/10/12 02:03:56;;;;;;;20.70;14.60;;;;;;;7.11;97.52;98044.94;108012;1263;68329;-75
2022/10/12 02:06:36;;;;;;;23.30;15.80;;;;;;;7.14;96.29;98046.02;107880;1258;58924;-75
2022/10/12 02:09:29;;;;;;;28.50;18.50;;;;;;;7.14;95.91;98048.79;108033;1262;58901;-73
2022/10/12 02:12:05;;;;;;;22.90;14.80;;;;;;;7.13;95.72;98050.78;108192;1256;70471;-75
2022/10/12 02:14:40;;;;;;;22.20;16.00;;;;;;;7.11;95.17;98049.10;107996;1262;69223;-75
2022/10/12 02:17:14;;;;;;;26.40;19.10;;;;;;;7.09;95.29;98047.30;107769;1261;69214;-75
2022/10/12 02:19:49;;;;;;;22.90;14.80;;;;;;;7.08;95.39;98047.71;107861;1256;58947;-75
2022/10/12 02:22:19;;;;;;;23.60;16.50;;;;;;;7.06;95.55;98050.21;107816;1263;58891;-75
2022/10/12 02:24:55;;;;;;;30.80;19.80;;;;;;;7.05;96.59;98050.80;107941;1256;68778;-76
2022/10/12 02:27:26;;;;;;;24.50;16.70;;;;;;;7.03;97.30;98052.81;107885;1266;69229;-75
2022/10/12 02:29:56;;;;;;;27.30;18.70;;;;;;;7.00;97.69;98051.02;107761;1263;69242;-77
2022/10/12 02:32:42;;;;;;;21.10;14.40;;;;;;;6.99;98.88;98052.84;107829;1266;58933;-76
2022/10/12 02:35:49;;;;;;;26.50;19.40;;;;;;;6.98;98.20;98054.59;107942;1263;58891;-75
2022/10/12 02:38:32;;;;;;;25.80;19.40;;;;;;;6.99;99.97;98055.05;107762;1266;70906;-75
2022/10/12 02:41:07;;;;;;;31.60;21.30;;;;;;;7.00;100.00;98051.36;107916;1266;69152;-74
2022/10/12 02:43:43;;;;;;;29.40;20.60;;;;;;;7.01;100.00;98050.83;108084;1262;68377;-75
2022/10/12 02:46:17;;;;;;;22.10;15.30;;;;;;;7.02;100.00;98054.93;107835;1263;58960;-75
2022/10/12 02:48:48;;;;;;;28.40;20.20;;;;;;;7.03;100.00;98054.55;107821;1257;58900;-75
2022/10/12 02:51:19;;;;;;;27.40;18.80;;;;;;;7.04;100.00;98054.16;107922;1261;70830;-75
2022/10/12 02:53:49;;;;;;;25.40;18.20;;;;;;;7.06;100.00;98053.19;107784;1262;69774;-74
2022/10/12 02:56:18;;;;;;;26.80;18.60;;;;;;;7.07;100.00;98053.80;108057;1266;68662;-75
2022/10/12 02:58:47;;;;;;;25.70;17.40;;;;;;;7.09;100.00;98052.67;108096;1262;58946;-75
2022/10/12 03:01:17;;;;;;;29.40;19.20;;;;;;;7.10;100.00;98052.44;108011;1265;58880;-75
2022/10/12 03:03:47;;;;;;;;;;;;;;;7.12;100.00;98049.55;108173;1262;70650;-75
2022/10/12 03:06:19;;;;;;;23.10;15.80;;;;;;;7.14;100.00;98052.09;107761;1266;69263;-75
2022/10/12 03:08:47;;;;;;;18.70;12.20;;;;;;;7.14;100.00;98052.58;108082;1264;68302;-75
2022/10/12 03:11:16;;;;;;;17.00;11.10;;;;;;;7.14;99.74;98049.11;107933;1266;58967;-74
2022/10/12 03:13:54;;;;;;;19.80;13.30;;;;;;;7.16;97.49;98049.90;108166;1262;58884;-75
2022/10/12 03:16:24;;;;;;;19.90;13.10;;;;;;;7.18;96.31;98050.71;108097;1264;69847;-74
2022/10/12 03:18:53;;;;;;;18.30;12.70;;;;;;;7.17;95.79;98048.85;108167;1266;69158;-76
2022/10/12 03:21:22;;;;;;;21.60;16.00;;;;;;;7.15;95.18;98051.70;108115;1260;69277;-76
2022/10/12 03:23:52;;;;;;;20.90;14.80;;;;;;;7.12;97.08;98051.14;107914;1263;58961;-76
2022/10/12 03:26:21;;;;;;;27.50;17.10;;;;;;;7.11;98.93;98050.30;107993;1265;58930;-76
2022/10/12 03:28:50;;;;;;;24.80;16.60;;;;;;;7.12;99.78;98048.00;108129;1264;71243;-76
2022/10/12 03:31:20;;;;;;;23.90;15.90;;;;;;;7.13;99.88;98048.47;108103;1262;68549;-76
2022/10/12 03:33:49;;;;;;;25.80;16.60;;;;;;;7.15;100.00;98048.75;108097;1255;67446;-76
2022/10/12 03:36:18;;;;;;;23.80;15.70;;;;;;;7.16;99.77;98047.48;108114;1266;58949;-76
2022/10/12 03:38:47;;;;;;;19.80;13.50;;;;;;;7.19;97.43;98048.04;108133;1266;59021;-76
2022/10/12 03:41:16;;;;;;;17.80;12.80;;;;;;;7.23;96.04;98047.67;107926;1266;71228;-76
2022/10/12 03:43:45;;;;;;;20.70;13.80;;;;;;;7.25;95.72;98049.68;108082;1262;69754;-76
2022/10/12 03:46:14;;;;;;;19.50;13.30;;;;;;;7.25;95.42;98051.89;107821;1266;68388;-76
2022/10/12 03:48:43;;;;;;;21.90;14.60;;;;;;;7.25;95.63;98048.77;107854;1266;59349;-76
2022/10/12 03:51:12;;;;;;;18.60;12.80;;;;;;;7.25;95.35;98047.56;108036;1266;58895;-77
2022/10/12 03:53:40;;;;;;;20.40;14.00;;;;;;;7.25;95.39;98050.88;107772;1266;70647;-76
2022/10/12 03:56:14;;;;;;;19.40;13.40;;;;;;;7.24;95.72;98054.21;107780;1262;69228;-74
2022/10/12 03:58:43;;;;;;;23.50;16.50;;;;;;;7.24;97.25;98051.61;107903;1266;68694;-75
2022/10/12 04:01:12;;;;;;;28.90;20.10;;;;;;;7.23;98.52;98053.92;108068;1264;58943;-75
2022/10/12 04:03:43;;;;;;;28.20;20.20;;;;;;;7.19;99.41;98055.67;107859;1262;58937;-74
2022/10/12 04:06:25;;;;;;;29.50;21.10;;;;;;;7.12;99.93;98055.48;107821;1262;70366;-74
2022/10/12 04:09:03;;;;;;;26.90;19.00;;;;;;;7.07;100.00;98059.37;108013;1260;68471;-76
2022/10/12 04:11:33;;;;;;;25.40;15.20;;;;;;;7.03;100.00;98056.77;108148;1266;67315;-75
2022/10/12 04:14:06;;;;;;;22.10;14.00;;;;;;;7.01;100.00;98057.73;108188;1262;58924;-75
2022/10/12 04:16:34;;;;;;;24.70;16.80;;;;;;;7.01;100.00;98059.63;108010;1262;58930;-75
2022/10/12 04:19:04;;;;;;;22.60;15.70;;;;;;;7.00;100.00;98061.61;108170;1262;71283;-75
2022/10/12 04:21:33;;;;;;;25.90;18.20;;;;;;;7.00;100.00;98058.51;107931;1262;69239;-76
2022/10/12 04:24:03;;;;;;;24.90;16.10;;;;;;;7.00;100.00;98057.27;108001;1266;68914;-75
2022/10/12 04:26:31;;;;;;;28.50;21.00;;;;;;;7.01;100.00;98057.23;108095;1266;58923;-75
2022/10/12 04:29:00;;;;;;;28.20;20.40;;;;;;;6.99;100.00;98059.20;108005;1264;58898;-73
2022/10/12 04:31:29;;;;;;;27.60;19.70;;;;;;;6.96;100.00;98056.94;108165;1265;70210;-74
2022/10/12 04:33:58;;;;;;;29.40;20.60;;;;;;;6.93;99.91;98056.05;107926;1260;69218;-74
2022/10/12 04:36:27;;;;;;;33.70;22.40;;;;;;;6.89;99.95;98057.10;107971;1266;69241;-74
2022/10/12 04:38:55;;;;;;;30.70;20.90;;;;;;;6.86;99.21;98055.02;107968;1266;58952;-75
2022/10/12 04:41:28;;;;;;;29.70;21.30;;;;;;;6.83;100.00;98058.27;108171;1266;58924;-75
2022/10/12 04:43:57;;;;;;;28.20;18.10;;;;;;;6.80;99.80;98060.33;108003;1262;70667;-75
2022/10/12 04:46:26;;;;;;;25.10;17.10;;;;;;;6.79;100.00;98060.50;108022;1262;69430;-74
2022/10/12 04:48:55;;;;;;;27.40;18.90;;;;;;;6.80;99.88;98063.44;107980;1266;69310;-75
2022/10/12 04:51:24;;;;;;;27.60;18.50;;;;;;;6.81;99.63;98065.42;107743;1262;58946;-75
2022/10/12 04:53:53;;;;;;;;;;;;;;;6.83;100.00;98068.98;108087;1256;58873;-76
2022/10/12 04:56:22;;;;;;;29.50;18.50;;;;;;;6.85;100.00;98068.75;107945;1262;70018;-75
2022/10/12 04:58:51;;;;;;;30.00;18.70;;;;;;;6.88;100.00;98072.25;108149;1262;67724;-74
2022/10/12 05:01:20;;;;;;;32.70;19.30;;;;;;;6.92;100.00;98073.24;107709;1266;68790;-75
2022/10/12 05:03:48;;;;;;;29.40;16.80;;;;;;;6.96;100.00;98073.77;107957;1258;58910;-74
2022/10/12 05:06:18;;;;;;;20.80;15.30;;;;;;;7.01;100.00;98074.58;108059;1262;58969;-74
2022/10/12 05:08:46;;;;;;;21.00;14.00;;;;;;;7.05;100.00;98077.11;108007;1265;68669;-74
2022/10/12 05:11:15;;;;;;;22.10;14.30;;;;;;;7.11;100.00;98078.91;107871;1266;69945;-74
2022/10/12 05:13:44;;;;;;;24.10;16.00;;;;;;;7.15;100.00;98082.90;107785;1266;68594;-74
2022/10/12 05:16:13;;;;;;;29.10;16.80;;;;;;;7.21;99.63;98083.15;107935;1266;58957;-75
2022/10/12 05:18:42;;;;;;;19.90;14.00;;;;;;;7.26;98.56;98083.95;108047;1260;58886;-75
2022/10/12 05:21:11;;;;;;;20.50;14.60;;;;;;;7.29;97.72;98085.52;108011;1266;70577;-75
2022/10/12 05:23:40;;;;;;;23.00;16.10;;;;;;;7.34;98.42;98086.48;107867;1262;69496;-75
2022/10/12 05:26:08;;;;;;;25.30;19.10;;;;;;;7.39;99.43;98090.21;107980;1262;68328;-75
2022/10/12 05:28:37;;;;;;;27.10;17.80;;;;;;;7.45;100.00;98095.14;107859;1265;58959;-75
2022/10/12 05:31:08;;;;;;;25.20;18.00;;;;;;;7.49;100.00;98094.91;108104;1262;58969;-75
2022/10/12 05:33:38;;;;;;;25.70;18.00;;;;;;;7.54;100.00;98096.09;107905;1266;70634;-75
2022/10/12 05:36:07;;;;;;;31.40;20.20;;;;;;;7.59;100.00;98100.86;107243;1262;809217;-74
2022/10/12 05:38:36;;;;;;;26.00;15.90;;;;;;;7.63;99.82;98106.02;108062;1266;68491;-75
2022/10/12 05:41:04;;;;;;;26.00;18.70;;;;;;;7.67;99.81;98107.90;107976;1261;58905;-74
2022/10/12 05:43:33;;;;;;;27.20;19.10;;;;;;;7.73;99.94;98109.36;107747;1267;58894;-75
2022/10/12 05:46:02;;;;;;;22.60;17.60;;;;;;;7.80;100.00;98108.66;107938;1266;70590;-75
2022/10/12 05:48:32;;;;;;;23.40;17.60;;;;;;;7.89;100.00;98112.34;107772;1266;69944;-73
2022/10/12 05:51:00;;;;;;;26.10;17.70;;;;;;;7.99;100.00;98116.17;108140;1256;68467;-75
2022/10/12 05:53:29;;;;;;;28.20;19.10;;;;;;;8.10;100.00;98119.96;107768;1266;58977;-75
2022/10/12 05:55:59;;;;;;;27.00;20.90;;;;;;;8.21;100.00;98116.45;108121;1256;58817;-75
2022/10/12 05:58:29;;;;;;;26.60;17.00;;;;;;;8.32;99.98;98121.07;108088;1266;69855;-75
2022/10/12 06:01:07;;;;;;;23.70;16.50;;;;;;;8.45;99.75;98118.71;108044;1266;68972;-74
2022/10/12 06:03:35;;;;;;;26.80;16.40;;;;;;;8.57;98.76;98116.33;108005;1266;69359;-75
2022/10/12 06:06:05;;;;;;;21.20;14.70;;;;;;;8.67;97.80;98118.55;108137;1266;58956;-75
2022/10/12 06:08:34;;;;;;;27.90;21.20;;;;;;;8.75;96.83;98120.55;108036;1266;58904;-75
2022/10/12 06:11:03;;;;;;;28.40;21.50;;;;;;;8.81;97.70;98123.73;108075;1262;70627;-75
2022/10/12 06:13:32;;;;;;;27.30;21.00;;;;;;;8.87;98.05;98127.70;108108;1265;69199;-75
2022/10/12 06:16:00;;;;;;;27.50;20.90;;;;;;;8.94;98.13;98131.52;107973;1262;68716;-75
2022/10/12 06:18:29;;;;;;;21.80;16.00;;;;;;;9.02;98.59;98133.67;108124;1266;58983;-75
2022/10/12 06:20:58;;;;;;;23.00;17.10;;;;;;;9.08;98.66;98132.66;107790;1266;58963;-75
2022/10/12 06:23:46;;;;;;;26.80;19.50;;;;;;;9.16;98.78;98138.13;107933;1266;70874;-75
2022/10/12 06:26:17;;;;;;;28.10;20.60;;;;;;;9.23;99.06;98137.77;108127;1266;69611;-76
2022/10/12 06:28:45;;;;;;;28.90;20.40;;;;;;;9.33;98.89;98139.46;108163;1266;69882;-74
2022/10/12 06:31:14;;;;;;;29.20;20.80;;;;;;;9.45;98.17;98139.79;107952;1263;58953;-75
2022/10/12 06:33:43;;;;;;;21.50;16.40;;;;;;;9.67;97.72;98144.97;107990;1266;58942;-74
2022/10/12 06:36:11;;;;;;;32.20;22.50;;;;;;;9.90;96.52;98149.58;108065;1264;70675;-73
2022/10/12 06:38:40;;;;;;;33.30;22.90;;;;;;;10.11;94.60;98152.72;107948;1257;68563;-76
2022/10/12 06:41:09;;;;;;;33.10;24.90;;;;;;;10.31;94.91;98152.58;107956;1266;68886;-75
2022/10/12 06:43:38;;;;;;;39.40;26.30;;;;;;;10.50;93.75;98156.65;108194;1262;59407;-75
2022/10/12 06:46:07;;;;;;;45.60;31.80;;;;;;;10.61;90.91;98163.46;108226;1266;58887;-75
2022/10/12 06:48:35;;;;;;;38.50;30.20;;;;;;;10.70;89.63;98165.02;108101;1262;70554;-75
2022/10/12 06:51:04;;;;;;;28.20;21.00;;;;;;;10.90;91.21;98161.73;108082;1266;69840;-75
2022/10/12 06:53:33;;;;;;;24.40;19.90;;;;;;;11.10;91.37;98162.19;107921;1264;68530;-75
2022/10/12 06:56:06;;;;;;;27.40;21.30;;;;;;;11.28;90.58;98156.16;107809;1266;58957;-74
2022/10/12 06:58:35;;;;;;;30.50;22.40;;;;;;;11.48;90.81;98156.30;108140;1262;58890;-75
2022/10/12 07:01:07;;;;;;;34.50;23.50;;;;;;;11.64;90.70;98160.13;108089;1264;70613;-75
2022/10/12 07:03:35;;;;;;;28.70;22.10;;;;;;;11.72;88.20;98155.61;108140;1260;68523;-75
2022/10/12 07:06:09;;;;;;;29.10;22.40;;;;;;;11.81;86.76;98157.30;108187;1264;70019;-74
2022/10/12 07:08:40;;;;;;;23.40;19.10;;;;;;;11.96;87.23;98158.92;107980;1266;58985;-73
2022/10/12 07:11:11;;;;;;;22.20;19.10;;;;;;;12.12;88.46;98159.08;107836;1264;58962;-76
2022/10/12 07:13:40;;;;;;;22.90;20.20;;;;;;;12.26;87.88;98161.11;108019;1262;69831;-75
2022/10/12 07:16:08;;;;;;;21.40;16.30;;;;;;;12.39;87.40;98160.41;108324;1264;69689;-76
2022/10/12 07:18:37;;;;;;;21.10;17.10;;;;;;;12.52;87.25;98162.61;108476;1266;69924;-74
2022/10/12 07:21:06;;;;;;;24.90;18.80;;;;;;;12.61;86.64;98162.20;108129;1266;58944;-74
2022/10/12 07:23:37;;;;;;;26.60;20.60;;;;;;;12.68;85.76;98165.91;107940;1266;58950;-73
2022/10/12 07:26:12;;;;;;;28.50;21.40;;;;;;;12.75;84.71;98163.13;107958;1266;71553;-74
2022/10/12 07:28:41;;;;;;;25.40;20.90;;;;;;;12.88;85.68;98161.52;107903;1266;69445;-74
2022/10/12 07:31:10;;;;;;;23.70;19.40;;;;;;;12.99;85.40;98158.69;108044;1266;69268;-73
2022/10/12 07:33:39;;;;;;;24.70;19.70;;;;;;;13.08;84.76;98157.54;108017;1266;58954;-73
2022/10/12 07:36:07;;;;;;;26.30;20.40;;;;;;;13.13;83.99;98154.20;108230;1260;58855;-74
2022/10/12 07:38:49;;;;;;;29.10;23.10;;;;;;;13.19;83.66;98160.41;108006;1265;70755;-74
2022/10/12 07:41:18;;;;;;;25.90;20.90;;;;;;;13.31;82.87;98156.11;108146;1265;69186;-75
2022/10/12 07:43:47;;;;;;;25.60;21.50;;;;;;;13.45;81.78;98156.60;108232;1266;69299;-74
2022/10/12 07:46:16;;;;;;;27.70;24.60;;;;;;;13.62;80.56;98156.66;108035;1265;58912;-74
2022/10/12 07:48:45;;;;;;;23.90;21.20;;;;;;;13.71;79.40;98154.14;108003;1266;58922;-72
2022/10/12 07:51:18;;;;;;;24.10;19.60;;;;;;;13.83;78.98;98157.35;108044;1266;71029;-74
2022/10/12 07:53:49;;;;;;;27.30;20.40;;;;;;;13.94;78.79;98154.23;108008;1266;68429;-74
2022/10/12 07:56:17;;;;;;;26.20;21.20;;;;;;;14.09;79.17;98154.32;107990;1264;68347;-74
2022/10/12 07:58:48;;;;;;;22.30;17.10;;;;;;;14.28;78.59;98150.41;108045;1266;58904;-74
2022/10/12 08:01:19;;;;;;;24.00;18.20;;;;;;;14.53;78.72;98154.86;107722;1266;58954;-74
2022/10/12 08:03:48;;;;;;;19.50;17.30;;;;;;;14.57;75.86;98155.23;108119;1262;70004;-74
2022/10/12 08:06:21;;;;;;;24.10;17.90;;;;;;;14.84;75.64;98155.08;107923;1265;69140;-74
2022/10/12 08:08:50;;;;;;;20.90;17.40;;;;;;;15.07;74.22;98152.20;107950;1266;68512;-73
2022/10/12 08:11:20;;;;;;;;;;;;;;;15.39;73.83;98149.30;108112;1266;58932;-74
2022/10/12 08:13:48;;;;;;;14.40;11.30;;;;;;;15.71;70.11;98148.34;108145;1262;58871;-73
2022/10/12 08:16:19;;;;;;;14.20;11.40;;;;;;;16.09;68.35;98146.39;107883;1262;70755;-73
2022/10/12 08:18:48;;;;;;;15.40;12.10;;;;;;;16.73;68.14;98145.52;108142;1264;69972;-74
2022/10/12 08:21:17;;;;;;;15.50;11.20;;;;;;;17.09;63.68;98145.94;107845;1262;69316;-74
2022/10/12 08:23:46;;;;;;;12.30;10.80;;;;;;;17.54;62.79;98140.36;108105;1266;58976;-74
2022/10/12 08:26:15;;;;;;;12.20;9.80;;;;;;;17.97;59.78;98142.80;108193;1266;58889;-74
2022/10/12 08:28:44;;;;;;;10.80;9.20;;;;;;;18.48;59.12;98143.02;107878;1262;69881;-74
2022/10/12 08:31:15;;;;;;;11.20;9.20;;;;;;;19.33;59.43;98134.22;107716;1265;69220;-73
2022/10/12 08:33:44;;;;;;;12.20;9.80;;;;;;;19.64;57.45;98132.10;107981;1266;67450;-74
2022/10/12 08:36:13;;;;;;;17.30;13.10;;;;;;;20.14;56.63;98132.95;107856;1259;58924;-72
2022/10/12 08:38:47;;;;;;;13.40;10.20;;;;;;;20.63;57.15;98132.47;107822;1266;58939;-74
2022/10/12 08:41:35;;;;;;;11.70;10.30;;;;;;;21.03;52.01;98131.52;107638;1266;71678;-72
2022/10/12 08:44:21;;;;;;;12.80;9.50;;;;;;;21.27;49.76;98130.55;107775;1262;69184;-72
2022/10/12 08:46:58;;;;;;;10.00;8.70;;;;;;;22.38;52.81;98131.40;107688;1265;69973;-73
2022/10/12 08:49:30;;;;;;;11.00;9.40;;;;;;;22.79;46.83;98128.96;108005;1262;58904;-72
2022/10/12 08:52:05;;;;;;;11.00;9.90;;;;;;;22.81;46.15;98128.20;108164;1262;58872;-73
2022/10/12 08:54:40;;;;;;;11.00;8.70;;;;;;;22.99;46.36;98124.48;108019;1262;70646;-72
2022/10/12 08:57:21;;;;;;;11.80;9.10;;;;;;;23.41;46.02;98116.60;107997;1262;68455;-73
2022/10/12 08:59:50;;;;;;;12.30;9.20;;;;;;;23.34;44.31;98117.81;108136;1265;68451;-73
2022/10/12 09:02:41;;;;;;;9.20;7.90;;;;;;;23.63;44.25;98116.11;107821;1266;58968;-73
2022/10/12 09:05:21;;;;;;;9.60;8.10;;;;;;;24.14;43.95;98115.02;107795;1266;58937;-73
2022/10/12 09:08:00;;;;;;;8.90;7.90;;;;;;;24.70;42.01;98110.23;107847;1262;69651;-72
2022/10/12 09:11:00;;;;;;;13.90;9.70;;;;;;;25.12;40.64;98108.91;107940;1266;69930;-73
2022/10/12 09:13:50;;;;;;;9.70;8.20;;;;;;;25.29;39.63;98108.27;108099;1262;68518;-73
2022/10/12 09:16:26;;;;;;;10.20;8.50;;;;;;;25.54;38.45;98104.36;108177;1266;58877;-74
2022/10/12 09:19:00;;;;;;;13.50;9.10;;;;;;;25.10;37.56;98104.52;107900;1266;58898;-73
2022/10/12 09:21:31;;;;;;;9.10;8.00;;;;;;;25.07;38.23;98101.52;107975;1262;70991;-74
2022/10/12 09:24:02;;;;;;;9.40;7.60;;;;;;;25.21;37.54;98102.71;108032;1266;69860;-72
2022/10/12 09:26:38;;;;;;;10.50;8.00;;;;;;;25.17;38.25;98097.41;108119;1262;69235;-72
2022/10/12 09:29:23;;;;;;;10.10;9.10;;;;;;;25.12;37.79;98101.42;107709;1266;58962;-72
2022/10/12 09:32:35;;;;;;;8.60;7.70;;;;;;;25.72;36.16;98098.35;107920;1265;58959;-72
2022/10/12 09:35:06;;;;;;;9.00;8.10;;;;;;;24.95;36.46;98094.27;107948;1266;69770;-73
2022/10/12 09:37:35;;;;;;;8.70;7.80;;;;;;;25.04;36.20;98090.45;107987;1266;69807;-73
2022/10/12 09:40:06;;;;;;;9.50;8.60;;;;;;;24.65;37.36;98091.31;108035;1262;69359;-72
2022/10/12 09:42:36;;;;;;;10.20;8.40;;;;;;;24.40;37.48;98089.03;108077;1265;58891;-71
2022/10/12 09:45:16;;;;;;;11.80;9.30;;;;;;;23.43;39.23;98087.09;107719;1266;58859;-72
2022/10/12 09:48:10;;;;;;;9.10;7.20;;;;;;;24.04;38.83;98089.86;107650;1263;71343;-71
2022/10/12 09:50:49;;;;;;;7.70;6.90;;;;;;;24.37;37.10;98090.54;107655;1261;68646;-72
2022/10/12 09:53:23;;;;;;;9.20;7.40;;;;;;;24.70;35.57;98091.63;107996;1266;70008;-72
2022/10/12 09:56:13;;;;;;;9.10;7.30;;;;;;;24.95;35.30;98087.81;107939;1266;58891;-72
2022/10/12 09:58:59;;;;;;;9.40;8.00;;;;;;;25.34;35.75;98089.66;108061;1260;58888;-72
2022/10/12 10:01:30;;;;;;;9.30;8.00;;;;;;;25.75;34.11;98089.45;108060;1262;71209;-72
2022/10/12 10:04:16;;;;;;;8.00;6.20;;;;;;;25.73;33.45;98083.61;108039;1266;69088;-72
2022/10/12 10:06:46;;;;;;;9.80;7.30;;;;;;;25.82;33.63;98083.17;107940;1263;69517;-72
2022/10/12 10:09:34;;;;;;;9.40;7.90;;;;;;;25.99;33.80;98084.23;107674;1261;58945;-72
2022/10/12 10:12:25;;;;;;;9.80;7.70;;;;;;;26.41;32.81;98089.02;108024;1266;58849;-73
2022/10/12 10:14:56;;;;;;;7.30;6.10;;;;;;;26.17;33.74;98082.92;108039;1266;69775;-72
2022/10/12 10:17:33;;;;;;;9.70;8.40;;;;;;;26.54;32.66;98080.84;108030;1266;68396;-73
2022/10/12 10:20:04;;;;;;;9.60;7.50;;;;;;;26.27;32.20;98076.73;107828;1262;69204;-72
2022/10/12 10:22:33;;;;;;;10.60;8.30;;;;;;;26.53;32.02;98078.42;108061;1265;58925;-71
2022/10/12 10:25:02;;;;;;;10.60;8.00;;;;;;;26.70;31.81;98077.20;107955;1265;58850;-71
2022/10/12 10:27:39;;;;;;;9.70;8.30;;;;;;;27.30;31.22;98072.99;107992;1260;71243;-72
2022/10/12 10:30:17;;;;;;;9.60;8.00;;;;;;;26.82;31.89;98073.23;108042;1266;68477;-71
2022/10/12 10:33:18;;;;;;;7.60;6.90;;;;;;;26.84;31.26;98071.23;107975;1262;69991;-71
2022/10/12 10:36:21;;;;;;;9.40;8.50;;;;;;;26.48;31.28;98068.05;107906;1260;58966;-72
2022/10/12 10:38:58;;;;;;;10.90;8.40;;;;;;;25.43;33.52;98061.27;108073;1266;58896;-72
2022/10/12 10:41:32;;;;;;;8.50;7.20;;;;;;;25.00;34.08;98061.55;108028;1262;70622;-71
2022/10/12 10:44:01;;;;;;;8.20;7.20;;;;;;;24.52;34.82;98062.15;108012;1266;69310;-71
2022/10/12 10:46:35;;;;;;;11.00;7.60;;;;;;;24.04;36.20;98058.14;108110;1264;70872;-72
2022/10/12 10:49:06;;;;;;;8.70;7.30;;;;;;;23.63;36.77;98057.08;107978;1262;58896;-71
2022/10/12 10:51:56;;;;;;;10.80;9.30;;;;;;;23.29;35.96;98050.86;108076;1256;58954;-72
2022/10/12 10:54:35;;;;;;;9.40;7.70;;;;;;;22.80;38.00;98048.90;108288;1266;70083;-72
2022/10/12 10:57:22;;;;;;;9.30;8.30;;;;;;;21.94;39.03;98050.70;108143;1266;69258;-71
2022/10/12 11:00:13;;;;;;;11.40;9.30;;;;;;;21.77;40.14;98046.98;107926;1264;69371;-71
2022/10/12 11:03:13;;;;;;;9.70;8.50;;;;;;;21.21;41.20;98044.78;107961;1266;58926;-70
2022/10/12 11:05:57;;;;;;;11.60;8.90;;;;;;;20.59;42.36;98043.30;107931;1257;58890;-70
2022/10/12 11:08:29;;;;;;;11.20;9.10;;;;;;;20.33;43.68;98037.55;107985;1266;69842;-70
2022/10/12 11:10:59;;;;;;;9.80;8.80;;;;;;;20.12;43.97;98039.19;107977;1262;70225;-72
2022/10/12 11:13:36;;;;;;;10.30;8.40;;;;;;;19.98;44.45;98034.64;107965;1266;69267;-71
2022/10/12 11:16:26;;;;;;;11.10;8.80;;;;;;;19.63;45.58;98032.31;107893;1266;58911;-71
2022/10/12 11:18:59;;;;;;;11.40;8.50;;;;;;;19.32;46.41;98030.91;107982;1266;58892;-71
2022/10/12 11:21:52;;;;;;;9.70;7.80;;;;;;;19.36;45.66;98030.21;107861;1266;69748;-70
2022/10/12 11:24:28;;;;;;;10.20;8.00;;;;;;;19.34;46.06;98027.73;107958;1266;69241;-71
2022/10/12 11:27:04;;;;;;;10.80;8.30;;;;;;;19.40;46.45;98022.77;108046;1262;69356;-71
2022/10/12 11:29:35;;;;;;;10.90;8.20;;;;;;;19.38;46.32;98020.79;108092;1266;58921;-71
2022/10/12 11:32:25;;;;;;;12.60;9.00;;;;;;;19.38;47.01;98020.52;108220;1266;58910;-71
2022/10/12 11:34:59;;;;;;;10.30;8.10;;;;;;;19.39;47.43;98019.52;107894;1259;70644;-70
2022/10/12 11:37:38;;;;;;;11.20;8.10;;;;;;;19.39;47.40;98018.45;107880;1266;68381;-71
2022/10/12 11:40:24;;;;;;;9.00;8.10;;;;;;;19.46;47.35;98016.34;108088;1263;69510;-73
2022/10/12 11:43:21;;;;;;;9.90;6.70;;;;;;;19.53;46.75;98012.77;108083;1266;58981;-72
2022/10/12 11:45:56;;;;;;;12.70;10.60;;;;;;;19.59;47.10;98010.44;107992;1266;58888;-70
2022/10/12 11:48:29;;;;;;;11.60;9.00;;;;;;;19.54;47.31;98007.94;108010;1266;71255;-70